Time;durP1;ratioP1;P1;durP2;ratioP2;P2;SDS_P1;SDS_P2;PMS_P1;PMS_P2;Temp;Humidity;BMP_temperature;BMP_pressure;BME280_temperature;BME280_humidity;BME280_pressure;Samples;Min_cycle;Max_cycle;Signal;HPM_P1;HPM_P2
2023/02/24 00:01:14;;;;;;;57.90;38.50;;;;;;;10.14;100.00;99539.71;186354;1233;43839;-87
2023/02/24 00:05:15;;;;;;;65.60;41.90;;;;;;;10.11;100.00;99528.47;186342;1232;43795;-87
2023/02/24 00:09:21;;;;;;;64.50;44.10;;;;;;;10.07;100.00;99524.58;186377;1234;43690;-86
2023/02/24 00:13:24;;;;;;;68.50;37.60;;;;;;;10.04;100.00;99518.27;186375;1234;57976;-87
2023/02/24 00:17:29;;;;;;;50.40;34.20;;;;;;;10.06;100.00;99513.70;186328;1233;44023;-87
2023/02/24 00:21:31;;;;;;;37.50;27.80;;;;;;;10.09;100.00;99507.58;186477;1233;44190;-87
2023/02/24 00:25:33;;;;;;;46.30;30.30;;;;;;;10.12;100.00;99500.73;186430;1232;43968;-86
2023/02/24 00:29:39;;;;;;;47.90;33.10;;;;;;;10.10;100.00;99501.44;186475;1233;43649;-87
2023/02/24 00:33:42;;;;;;;41.60;29.70;;;;;;;10.03;100.00;99496.23;186409;1236;58210;-86
2023/02/24 00:37:50;;;;;;;55.00;32.30;;;;;;;9.98;100.00;99493.84;186495;1232;43892;-87
2023/02/24 00:41:51;;;;;;;53.90;34.00;;;;;;;9.95;100.00;99489.16;186445;1234;43784;-87
2023/02/24 00:45:54;;;;;;;43.40;29.20;;;;;;;9.93;100.00;99481.26;186775;1233;44095;-87
2023/02/24 00:49:56;;;;;;;51.50;32.40;;;;;;;9.94;100.00;99476.38;186544;1233;43617;-87
2023/02/24 00:53:57;;;;;;;54.30;35.70;;;;;;;9.93;100.00;99473.95;186534;1233;60275;-87
2023/02/24 00:57:59;;;;;;;45.70;32.20;;;;;;;9.94;100.00;99473.86;186595;1234;43748;-88
2023/02/24 01:02:02;;;;;;;55.10;30.90;;;;;;;9.96;100.00;99466.61;186475;1233;43657;-88
2023/02/24 01:06:05;;;;;;;68.80;40.50;;;;;;;9.94;100.00;99468.33;186467;1233;44019;-88
2023/02/24 01:10:07;;;;;;;65.90;38.10;;;;;;;9.96;100.00;99459.35;186573;1233;43981;-87
2023/02/24 01:14:14;;;;;;;44.30;33.60;;;;;;;10.00;100.00;99458.02;186765;1233;59183;-87
2023/02/24 01:18:16;;;;;;;59.20;32.50;;;;;;;9.99;100.00;99453.88;186485;1232;44036;-87
2023/02/24 01:22:20;;;;;;;55.00;37.80;;;;;;;9.96;100.00;99453.45;186602;1233;44550;-87
2023/02/24 01:26:22;;;;;;;50.00;35.20;;;;;;;9.89;100.00;99449.70;186466;1232;43934;-87
2023/02/24 01:30:25;;;;;;;47.10;31.10;;;;;;;9.81;100.00;99440.85;186679;1234;43665;-87
2023/02/24 01:34:27;;;;;;;46.00;33.40;;;;;;;9.80;100.00;99441.44;186771;1233;59566;-87
2023/02/24 01:38:31;;;;;;;48.70;32.80;;;;;;;9.82;100.00;99435.92;186544;1232;43685;-87
2023/02/24 01:42:33;;;;;;;51.50;31.50;;;;;;;9.83;100.00;99435.16;186448;1233;44007;-88
2023/02/24 01:46:38;;;;;;;56.10;36.30;;;;;;;9.88;100.00;99432.09;186543;1234;43676;-88
2023/02/24 01:50:40;;;;;;;44.40;30.40;;;;;;;9.91;100.00;99421.41;186687;1234;43664;-86
2023/02/24 01:54:48;;;;;;;36.60;27.70;;;;;;;9.85;100.00;99416.17;186871;1234;59406;-86
2023/02/24 01:58:51;;;;;;;48.30;31.20;;;;;;;9.83;100.00;99408.77;186502;1236;43873;-86
2023/02/24 02:02:56;;;;;;;42.20;28.50;;;;;;;9.83;100.00;99402.21;186630;1232;43641;-86
2023/02/24 02:06:57;;;;;;;42.60;29.50;;;;;;;9.89;100.00;99398.00;186508;1233;43641;-86
2023/02/24 02:11:03;;;;;;;48.70;30.20;;;;;;;9.95;100.00;99393.56;186634;1235;44070;-87
2023/02/24 02:15:06;;;;;;;;;;;;;;;9.92;100.00;99392.18;186729;1235;58628;-87
2023/02/24 02:19:31;;;;;;;40.10;30.00;;;;;;;9.85;100.00;99391.11;186613;1234;43785;-87
2023/02/24 02:23:56;;;;;;;49.60;32.70;;;;;;;9.84;100.00;99390.95;185613;1238;43804;-87
2023/02/24 02:28:18;;;;;;;41.80;28.70;;;;;;;9.77;100.00;99386.45;185511;1238;43868;-86
2023/02/24 02:32:50;;;;;;;44.60;31.00;;;;;;;9.74;100.00;99384.53;185567;1242;44177;-87
2023/02/24 02:37:13;;;;;;;47.30;32.50;;;;;;;9.68;100.00;99378.14;185544;1238;57764;-87
2023/02/24 02:41:23;;;;;;;40.50;28.10;;;;;;;9.63;100.00;99369.42;185610;1242;44147;-86
2023/02/24 02:45:35;;;;;;;42.30;32.70;;;;;;;9.66;100.00;99370.91;185530;1238;44025;-86
2023/02/24 02:49:42;;;;;;;43.30;29.20;;;;;;;9.72;100.00;99368.02;185543;1238;43654;-88
2023/02/24 02:54:03;;;;;;;36.70;27.90;;;;;;;9.77;100.00;99364.04;185581;1238;43970;-88
2023/02/24 02:58:13;;;;;;;42.70;30.20;;;;;;;9.72;100.00;99363.20;185494;1240;57835;-88
2023/02/24 03:02:20;;;;;;;47.50;30.60;;;;;;;9.71;100.00;99357.98;186296;1234;43653;-88
2023/02/24 03:06:27;;;;;;;38.30;27.50;;;;;;;9.72;100.00;99354.57;186329;1235;44122;-88
2023/02/24 03:10:33;;;;;;;38.40;27.40;;;;;;;9.64;100.00;99350.52;186428;1233;43723;-88
2023/02/24 03:14:38;;;;;;;29.60;22.30;;;;;;;9.53;100.00;99348.48;186291;1233;43970;-88
2023/02/24 03:18:49;;;;;;;39.40;25.30;;;;;;;9.49;100.00;99344.85;186298;1235;58594;-88
2023/02/24 03:23:15;;;;;;;36.70;22.10;;;;;;;9.49;100.00;99340.91;186371;1235;43769;-88
2023/02/24 03:27:29;;;;;;;34.20;21.80;;;;;;;9.48;100.00;99338.34;186525;1234;43805;-88
2023/02/24 03:31:44;;;;;;;40.10;25.90;;;;;;;9.48;100.00;99335.19;186333;1235;43758;-88
2023/02/24 03:35:50;;;;;;;28.80;21.70;;;;;;;9.47;100.00;99331.59;186332;1233;43677;-87
2023/02/24 03:39:59;;;;;;;36.40;24.90;;;;;;;9.48;100.00;99332.48;186346;1233;57934;-88
2023/02/24 03:44:02;;;;;;;36.30;23.20;;;;;;;9.50;100.00;99329.37;186118;1233;387400;-87
2023/02/24 03:48:06;;;;;;;34.40;25.20;;;;;;;9.56;100.00;99328.91;186144;1233;43719;-88
2023/02/24 03:52:28;;;;;;;29.70;21.50;;;;;;;9.59;100.00;99324.77;186385;1234;43643;-88
2023/02/24 03:56:56;;;;;;;36.90;23.80;;;;;;;9.55;100.00;99323.55;186529;1233;43957;-87
2023/02/24 04:01:24;;;;;;;33.20;24.00;;;;;;;9.47;100.00;99320.56;186387;1234;57857;-87
2023/02/24 04:05:28;;;;;;;36.40;24.40;;;;;;;9.45;100.00;99317.20;186277;1235;43812;-87
2023/02/24 04:09:47;;;;;;;34.50;23.90;;;;;;;9.44;100.00;99314.99;186339;1235;43650;-87
2023/02/24 04:13:58;;;;;;;43.20;29.20;;;;;;;9.44;100.00;99311.64;186520;1234;44160;-88
2023/02/24 04:18:12;;;;;;;29.50;19.90;;;;;;;9.42;100.00;99311.85;186303;1233;43953;-88
2023/02/24 04:22:18;;;;;;;37.20;27.40;;;;;;;9.28;100.00;99309.04;186246;1235;60214;-87
2023/02/24 04:26:23;;;;;;;35.40;24.90;;;;;;;9.17;100.00;99308.85;186163;1234;43852;-87
2023/02/24 04:30:29;;;;;;;43.10;27.00;;;;;;;9.07;100.00;99305.86;186239;1233;43978;-88
2023/02/24 04:34:31;;;;;;;34.90;22.00;;;;;;;9.02;100.00;99301.84;186243;1232;44012;-89
2023/02/24 04:38:35;;;;;;;35.10;23.20;;;;;;;8.89;100.00;99299.98;186341;1234;44010;-88
2023/02/24 04:42:45;;;;;;;48.80;26.20;;;;;;;8.81;100.00;99294.52;186281;1232;58100;-88
2023/02/24 04:46:51;;;;;;;43.90;29.80;;;;;;;8.78;100.00;99291.59;186285;1235;43905;-87
2023/02/24 04:50:54;;;;;;;36.10;26.70;;;;;;;8.69;100.00;99284.83;186361;1232;43782;-88
2023/02/24 04:54:57;;;;;;;48.00;26.60;;;;;;;8.65;100.00;99285.34;186492;1233;43625;-88
2023/02/24 04:58:59;;;;;;;43.10;28.40;;;;;;;8.62;100.00;99284.02;186599;1232;43707;-88
2023/02/24 05:03:03;;;;;;;54.30;33.20;;;;;;;8.63;100.00;99281.30;186323;1235;59415;-87
2023/02/24 05:07:05;;;;;;;32.70;24.30;;;;;;;8.61;100.00;99284.10;186383;1232;43746;-89
2023/02/24 05:11:17;;;;;;;33.10;24.30;;;;;;;8.59;100.00;99278.13;186480;1233;43792;-86
2023/02/24 05:15:20;;;;;;;26.60;15.90;;;;;;;8.58;100.00;99277.85;186491;1233;43997;-88
2023/02/24 05:23:52;;;;;;;20.60;13.30;;;;;;;8.52;100.00;99279.39;186419;1235;59135;-87
2023/02/24 05:27:55;;;;;;;17.30;12.20;;;;;;;8.41;100.00;99276.84;186420;1234;43728;-89
2023/02/24 05:31:58;;;;;;;18.70;12.50;;;;;;;8.36;100.00;99272.65;186621;1232;43680;-89
2023/02/24 05:36:11;;;;;;;15.40;10.40;;;;;;;8.26;100.00;99271.98;186497;1235;43905;-89
2023/02/24 05:40:23;;;;;;;24.30;15.10;;;;;;;8.20;100.00;99268.94;186531;1233;43733;-88
2023/02/24 05:44:26;;;;;;;32.00;16.00;;;;;;;8.11;100.00;99268.11;186443;1234;57970;-87
2023/02/24 05:48:33;;;;;;;25.60;13.30;;;;;;;8.01;100.00;99266.34;186382;1232;43623;-87
2023/02/24 05:52:36;;;;;;;16.80;12.50;;;;;;;8.00;100.00;99268.05;186280;1233;43658;-87
2023/02/24 05:56:43;;;;;;;25.40;14.60;;;;;;;7.94;100.00;99266.64;186388;1233;43667;-86
2023/02/24 06:00:45;;;;;;;24.50;16.20;;;;;;;7.93;100.00;99265.87;186378;1235;43711;-87
2023/02/24 06:04:52;;;;;;;27.10;18.30;;;;;;;7.93;100.00;99266.67;186339;1234;59161;-87
2023/02/24 06:08:56;;;;;;;20.60;15.90;;;;;;;7.94;100.00;99263.47;186217;1234;43636;-87
2023/02/24 06:13:01;;;;;;;22.00;14.60;;;;;;;7.93;100.00;99257.00;186257;1233;43748;-86
2023/02/24 06:17:03;;;;;;;25.80;14.50;;;;;;;7.88;100.00;99268.23;186218;1236;43561;-87
2023/02/24 06:21:07;;;;;;;24.80;15.00;;;;;;;7.84;100.00;99273.50;186443;1233;43738;-87
2023/02/24 06:25:12;;;;;;;20.50;13.00;;;;;;;7.82;100.00;99271.70;186330;1232;57967;-88
2023/02/24 06:29:16;;;;;;;29.40;17.10;;;;;;;7.75;100.00;99268.38;186450;1233;43826;-87
2023/02/24 06:33:18;;;;;;;23.50;15.20;;;;;;;7.72;100.00;99270.77;186402;1234;43933;-88
2023/02/24 06:37:21;;;;;;;34.00;15.80;;;;;;;7.66;100.00;99270.23;186413;1234;43627;-88
2023/02/24 06:41:28;;;;;;;25.60;16.30;;;;;;;7.66;100.00;99274.51;186404;1234;43667;-87
2023/02/24 06:45:30;;;;;;;30.50;18.90;;;;;;;7.59;100.00;99271.40;186441;1232;59516;-88
2023/02/24 06:49:33;;;;;;;27.60;19.10;;;;;;;7.57;100.00;99269.77;186232;1234;43700;-88
2023/02/24 06:53:41;;;;;;;27.20;16.20;;;;;;;7.63;100.00;99272.28;186241;1234;44093;-87
2023/02/24 06:57:43;;;;;;;24.80;14.70;;;;;;;7.65;100.00;99271.19;186238;1234;43750;-87
2023/02/24 07:01:45;;;;;;;29.20;19.20;;;;;;;7.67;100.00;99277.94;186454;1234;44052;-87
2023/02/24 07:06:19;;;;;;;28.40;18.80;;;;;;;7.77;100.00;99274.61;186393;1233;59052;-87
2023/02/24 07:10:17;;;;;;;36.50;23.70;;;;;;;7.81;100.00;99274.05;186341;1233;43938;-88
2023/02/24 07:14:21;;;;;;;36.20;22.10;;;;;;;7.93;100.00;99271.10;186319;1233;43722;-87
2023/02/24 07:18:25;;;;;;;37.60;20.60;;;;;;;7.92;100.00;99271.05;186356;1233;43665;-87
2023/02/24 07:22:27;;;;;;;38.30;19.90;;;;;;;7.97;100.00;99269.03;186494;1233;43728;-88
2023/02/24 07:26:29;;;;;;;21.50;17.30;;;;;;;7.98;100.00;99265.23;186159;1233;59413;-88
2023/02/24 07:30:32;;;;;;;21.00;12.70;;;;;;;7.96;100.00;99259.05;186417;1233;43999;-88
2023/02/24 07:34:38;;;;;;;22.00;14.40;;;;;;;7.93;100.00;99258.45;186240;1234;43666;-88
2023/02/24 07:38:42;;;;;;;22.00;15.80;;;;;;;7.83;100.00;99256.80;186349;1233;43763;-89
2023/02/24 07:42:48;;;;;;;23.10;14.20;;;;;;;7.90;100.00;99250.59;186215;1233;44032;-87
2023/02/24 07:46:59;;;;;;;19.80;13.10;;;;;;;7.87;100.00;99244.48;186232;1234;59806;-88
2023/02/24 07:51:23;;;;;;;24.80;15.80;;;;;;;7.86;100.00;99241.88;186343;1232;43999;-87
2023/02/24 07:55:30;;;;;;;22.90;15.70;;;;;;;7.87;100.00;99239.36;186366;1233;43737;-86
2023/02/24 07:59:34;;;;;;;22.40;13.10;;;;;;;7.89;100.00;99243.44;186277;1233;43761;-86
2023/02/24 08:03:40;;;;;;;23.20;14.50;;;;;;;7.90;100.00;99239.44;186396;1234;43692;-86
2023/02/24 08:07:47;;;;;;;27.00;14.90;;;;;;;7.96;100.00;99234.52;186436;1234;58098;-86
2023/02/24 08:11:52;;;;;;;20.40;13.00;;;;;;;7.91;100.00;99227.20;186324;1232;43709;-86
2023/02/24 08:15:56;;;;;;;29.40;16.30;;;;;;;7.89;100.00;99224.15;186444;1233;43719;-86
2023/02/24 08:24:19;;;;;;;30.00;15.40;;;;;;;7.80;100.00;99215.73;186431;1233;43652;-86
2023/02/24 08:28:25;;;;;;;25.50;13.90;;;;;;;7.68;100.00;99215.38;186428;1232;59240;-86
2023/02/24 08:32:33;;;;;;;17.90;11.10;;;;;;;7.56;100.00;99212.86;186245;1233;43831;-86
2023/02/24 08:36:38;;;;;;;22.80;13.00;;;;;;;7.61;100.00;99202.88;186530;1232;43779;-86
2023/02/24 08:40:51;;;;;;;15.20;9.20;;;;;;;7.70;100.00;99196.00;186454;1233;43632;-86
2023/02/24 08:44:53;;;;;;;18.00;10.60;;;;;;;7.67;100.00;99191.09;186541;1233;43781;-86
2023/02/24 08:48:59;;;;;;;14.10;8.30;;;;;;;7.49;100.00;99199.15;186299;1234;59464;-86
2023/02/24 08:53:01;;;;;;;13.50;8.30;;;;;;;7.61;100.00;99194.27;186458;1234;43772;-86
2023/02/24 08:57:13;;;;;;;16.50;8.70;;;;;;;7.60;100.00;99192.95;186319;1236;43881;-86
2023/02/24 09:01:18;;;;;;;21.10;9.30;;;;;;;7.58;100.00;99184.48;186329;1233;43928;-86
2023/02/24 09:05:24;;;;;;;12.80;9.90;;;;;;;7.53;100.00;99183.98;186290;1233;44041;-86
2023/02/24 09:09:26;;;;;;;15.30;9.60;;;;;;;7.51;100.00;99180.14;186267;1233;57540;-86
2023/02/24 09:13:34;;;;;;;14.20;7.70;;;;;;;7.58;100.00;99181.33;186379;1233;43931;-86
2023/02/24 09:17:39;;;;;;;11.20;7.70;;;;;;;7.41;100.00;99186.66;186301;1233;43742;-86
2023/02/24 09:25:48;;;;;;;6.30;3.50;;;;;;;7.07;100.00;99177.55;186505;1233;43708;-86
2023/02/24 09:29:51;;;;;;;8.40;4.30;;;;;;;6.99;100.00;99169.72;186380;1233;58044;-86
2023/02/24 09:33:53;;;;;;;7.90;5.30;;;;;;;6.94;100.00;99166.58;186306;1233;43688;-86
2023/02/24 09:37:59;;;;;;;6.30;4.20;;;;;;;6.80;100.00;99156.71;186256;1233;44080;-86
2023/02/24 09:46:13;;;;;;;4.90;4.30;;;;;;;6.95;100.00;99141.32;186450;1234;43877;-86
2023/02/24 09:50:21;;;;;;;6.20;3.60;;;;;;;7.00;100.00;99135.47;186326;1233;57945;-86
2023/02/24 09:55:34;;;;;;;6.00;3.70;;;;;;;7.17;100.00;99121.80;186510;1233;43759;-85
2023/02/24 09:59:35;;;;;;;5.10;4.30;;;;;;;7.52;100.00;99119.03;186342;1233;44172;-85
2023/02/24 10:03:46;;;;;;;8.70;5.00;;;;;;;7.74;100.00;99121.27;186499;1233;43908;-86
2023/02/24 10:07:51;;;;;;;9.50;6.00;;;;;;;7.86;100.00;99114.07;186326;1233;43732;-87
2023/02/24 10:12:04;;;;;;;10.30;6.00;;;;;;;7.83;100.00;99106.41;186481;1233;59076;-86
2023/02/24 10:16:12;;;;;;;9.40;6.20;;;;;;;7.84;99.37;99112.13;186296;1234;43626;-86
2023/02/24 10:20:27;;;;;;;9.20;5.30;;;;;;;7.94;99.26;99107.88;186437;1232;43806;-86
2023/02/24 10:24:46;;;;;;;11.00;8.20;;;;;;;8.00;99.29;99098.55;186502;1233;43989;-87
2023/02/24 10:29:21;;;;;;;8.20;6.60;;;;;;;8.06;99.47;99090.97;186411;1233;43660;-87
2023/02/24 10:33:33;;;;;;;11.90;8.50;;;;;;;8.08;98.56;99081.93;186354;1233;57974;-87
2023/02/24 10:37:35;;;;;;;9.50;6.90;;;;;;;8.16;99.67;99074.18;186293;1233;43985;-87
2023/02/24 10:41:55;;;;;;;10.70;8.10;;;;;;;8.15;98.46;99065.23;186411;1233;44216;-87
2023/02/24 10:46:15;;;;;;;13.30;8.20;;;;;;;8.13;99.06;99058.48;186268;1233;43751;-86
2023/02/24 10:50:54;;;;;;;15.60;8.50;;;;;;;8.08;98.84;99055.42;186676;1233;43542;-87
2023/02/24 10:55:07;;;;;;;9.60;7.30;;;;;;;8.09;99.42;99040.33;185292;1239;59453;-87
2023/02/24 11:04:11;;;;;;;12.50;8.50;;;;;;;8.34;96.40;99019.16;185108;1239;43888;-86
2023/02/24 11:17:19;;;;;;;11.80;6.90;;;;;;;8.41;94.27;98993.80;185275;1239;58081;-87
2023/02/24 11:21:24;;;;;;;12.70;5.50;;;;;;;8.37;93.74;98986.27;185150;1239;43794;-87
2023/02/24 11:25:38;;;;;;;5.70;4.70;;;;;;;8.55;93.89;98980.92;185173;1240;43743;-86
2023/02/24 11:29:47;;;;;;;6.40;3.80;;;;;;;8.52;92.96;98971.11;186081;1234;43990;-87
2023/02/24 11:33:52;;;;;;;11.50;7.50;;;;;;;8.53;93.99;98960.45;186565;1233;43862;-87
2023/02/24 11:37:56;;;;;;;;;;;;;;;8.63;93.76;98950.46;186696;1233;58105;-87
2023/02/24 11:42:04;;;;;;;16.30;6.10;;;;;;;8.84;92.27;98939.30;186550;1233;43800;-87
2023/02/24 11:46:16;;;;;;;7.50;5.70;;;;;;;9.00;91.49;98933.48;186256;1232;43631;-86
2023/02/24 11:50:35;;;;;;;16.40;11.00;;;;;;;9.08;94.48;98928.00;186195;1233;44011;-86
2023/02/24 11:54:42;;;;;;;20.20;10.80;;;;;;;8.95;94.13;98931.67;186491;1233;44073;-86
2023/02/24 11:59:02;;;;;;;13.60;9.90;;;;;;;8.79;94.60;98926.63;186253;1233;59321;-87
2023/02/24 12:03:13;;;;;;;12.70;8.10;;;;;;;8.80;96.26;98914.56;186555;1233;43804;-87
2023/02/24 12:07:31;;;;;;;15.40;8.00;;;;;;;8.84;96.65;98912.02;186478;1233;43888;-87
2023/02/24 12:11:45;;;;;;;14.60;8.40;;;;;;;8.72;94.97;98912.84;186298;1234;43761;-87
2023/02/24 12:15:55;;;;;;;13.00;7.30;;;;;;;8.91;96.47;98895.27;186589;1233;43722;-87
2023/02/24 12:20:04;;;;;;;7.80;4.80;;;;;;;8.91;93.89;98885.36;186450;1234;58294;-86
2023/02/24 12:24:11;;;;;;;3.80;3.30;;;;;;;9.12;94.32;98878.27;186342;1233;43628;-86
2023/02/24 12:28:34;;;;;;;4.20;3.90;;;;;;;9.26;91.81;98865.05;186487;1233;43662;-87
2023/02/24 12:32:40;;;;;;;5.30;3.50;;;;;;;9.42;91.56;98857.08;186502;1234;43995;-87
2023/02/24 12:36:47;;;;;;;4.20;2.90;;;;;;;9.47;90.60;98851.60;186442;1232;43762;-87
2023/02/24 12:41:05;;;;;;;5.20;2.60;;;;;;;9.41;88.79;98850.59;186491;1233;59635;-87
2023/02/24 12:45:31;;;;;;;4.90;2.90;;;;;;;9.17;89.84;98836.40;186414;1233;43724;-87
2023/02/24 12:50:10;;;;;;;8.00;4.70;;;;;;;9.26;90.61;98827.52;186484;1233;43684;-86
2023/02/24 12:54:18;;;;;;;3.50;2.20;;;;;;;8.98;89.45;98824.98;186517;1236;43936;-87
2023/02/24 12:58:25;;;;;;;4.70;3.10;;;;;;;9.02;90.63;98821.90;186580;1234;43963;-87
2023/02/24 13:03:16;;;;;;;5.50;3.40;;;;;;;9.03;89.77;98813.56;186485;1232;57590;-87
2023/02/24 13:07:27;;;;;;;5.40;3.70;;;;;;;9.04;91.75;98809.02;186396;1234;43666;-87
2023/02/24 13:11:36;;;;;;;5.30;3.70;;;;;;;9.10;91.62;98796.55;186538;1232;43678;-87
2023/02/24 13:15:49;;;;;;;4.70;4.30;;;;;;;9.15;90.02;98785.58;186270;1234;43646;-87
2023/02/24 13:19:54;;;;;;;5.20;3.70;;;;;;;9.21;89.24;98774.02;186443;1233;43653;-87
2023/02/24 13:24:01;;;;;;;4.30;3.90;;;;;;;9.14;87.70;98775.52;186506;1236;57861;-87
2023/02/24 13:28:20;;;;;;;6.90;4.20;;;;;;;9.06;87.88;98771.64;186518;1233;44012;-86
2023/02/24 13:32:32;;;;;;;5.20;4.10;;;;;;;9.06;88.64;98763.33;186408;1232;43670;-87
2023/02/24 13:36:45;;;;;;;2.70;2.50;;;;;;;8.89;87.23;98761.86;186518;1232;43589;-87
2023/02/24 13:40:47;;;;;;;6.10;4.10;;;;;;;8.85;87.50;98759.80;186400;1233;43691;-86
2023/02/24 13:45:16;;;;;;;6.00;3.90;;;;;;;8.86;88.74;98753.77;186654;1234;57787;-87
2023/02/24 13:49:35;;;;;;;8.00;5.30;;;;;;;8.63;86.48;98758.20;186455;1233;43737;-87
2023/02/24 13:54:17;;;;;;;6.80;4.10;;;;;;;8.61;86.79;98743.66;186357;1233;44021;-83
2023/02/24 13:58:49;;;;;;;8.70;4.40;;;;;;;8.74;87.40;98735.38;186411;1234;43802;-84
2023/02/24 14:02:52;;;;;;;6.30;4.40;;;;;;;8.83;85.61;98726.01;186485;1234;44013;-84
2023/02/24 14:07:01;;;;;;;8.50;5.40;;;;;;;8.86;84.47;98714.23;186552;1232;58663;-84
2023/02/24 14:11:03;;;;;;;13.90;7.10;;;;;;;8.90;84.40;98710.62;186320;1233;43763;-84
2023/02/24 14:15:10;;;;;;;9.30;7.10;;;;;;;8.84;84.38;98711.07;186444;1232;44327;-83
2023/02/24 14:19:15;;;;;;;8.50;6.20;;;;;;;8.91;85.05;98708.24;186233;1232;44078;-83
2023/02/24 14:23:22;;;;;;;9.30;5.40;;;;;;;8.95;85.99;98715.27;186403;1234;44006;-83
2023/02/24 14:27:25;;;;;;;4.50;3.80;;;;;;;8.96;85.54;98711.97;186494;1232;57992;-83
2023/02/24 14:31:29;;;;;;;6.80;4.20;;;;;;;8.96;85.97;98701.55;186360;1233;43808;-85
2023/02/24 14:35:46;;;;;;;8.50;5.10;;;;;;;9.00;86.78;98702.42;186492;1233;43992;-85
2023/02/24 14:40:13;;;;;;;10.90;6.70;;;;;;;8.84;85.72;98694.03;186347;1233;43923;-84
2023/02/24 14:44:18;;;;;;;6.50;4.20;;;;;;;8.69;86.58;98690.42;186468;1232;43814;-84
2023/02/24 14:48:28;;;;;;;8.80;6.70;;;;;;;8.57;87.79;98685.92;186552;1233;57953;-85
2023/02/24 14:52:51;;;;;;;6.20;4.60;;;;;;;8.45;87.98;98686.94;186268;1232;43805;-84
2023/02/24 14:56:53;;;;;;;9.40;6.60;;;;;;;8.22;88.96;98686.13;186450;1234;43894;-83
2023/02/24 15:00:55;;;;;;;9.20;6.10;;;;;;;8.06;88.68;98676.94;186207;1233;43807;-84
2023/02/24 15:04:57;;;;;;;10.30;5.00;;;;;;;7.88;89.73;98677.27;186462;1233;43869;-84
2023/02/24 15:09:04;;;;;;;16.20;4.90;;;;;;;7.71;89.77;98667.52;186314;1234;59280;-83
2023/02/24 15:13:28;;;;;;;7.80;5.50;;;;;;;7.69;89.46;98668.44;186429;1234;43809;-83
2023/02/24 15:17:30;;;;;;;8.80;5.10;;;;;;;7.71;89.72;98664.36;186623;1233;43795;-83
2023/02/24 15:21:41;;;;;;;11.10;7.20;;;;;;;7.65;89.72;98653.14;186400;1234;44007;-83
2023/02/24 15:25:46;;;;;;;11.50;5.30;;;;;;;7.54;89.60;98645.12;186355;1233;44089;-83
2023/02/24 15:29:59;;;;;;;10.50;6.80;;;;;;;7.51;89.48;98639.67;186312;1234;59147;-84
2023/02/24 15:34:02;;;;;;;14.70;9.90;;;;;;;7.51;89.40;98633.96;186327;1237;44150;-84
2023/02/24 15:38:04;;;;;;;28.90;10.40;;;;;;;7.52;89.81;98634.90;186193;1232;43919;-84
2023/02/24 15:42:27;;;;;;;14.00;10.80;;;;;;;7.51;90.12;98614.18;186252;1233;44122;-83
2023/02/24 15:46:32;;;;;;;16.70;11.90;;;;;;;7.48;89.16;98613.94;186423;1233;44042;-84
2023/02/24 15:50:36;;;;;;;12.60;8.90;;;;;;;7.44;90.33;98614.16;186195;1235;58921;-83
2023/02/24 15:54:41;;;;;;;13.40;8.10;;;;;;;7.37;91.23;98608.19;186237;1232;43817;-84
2023/02/24 15:58:43;;;;;;;16.70;8.00;;;;;;;7.37;91.85;98604.79;186566;1234;44078;-84
2023/02/24 16:02:44;;;;;;;11.20;6.70;;;;;;;7.36;92.95;98600.02;186474;1234;43615;-83
2023/02/24 16:06:53;;;;;;;17.00;7.20;;;;;;;7.27;92.77;98597.77;186479;1233;43784;-83
2023/02/24 16:10:55;;;;;;;13.00;9.00;;;;;;;7.23;93.52;98585.61;186271;1233;59234;-83
2023/02/24 16:15:00;;;;;;;9.30;7.00;;;;;;;7.32;93.50;98579.86;186661;1232;43641;-83
2023/02/24 16:19:02;;;;;;;12.50;6.60;;;;;;;7.41;93.68;98574.23;186291;1233;44027;-84
2023/02/24 16:23:04;;;;;;;17.50;9.00;;;;;;;7.46;92.84;98572.39;186260;1233;43963;-83
2023/02/24 16:27:07;;;;;;;15.00;8.20;;;;;;;7.49;92.47;98564.36;186549;1232;43824;-82
2023/02/24 16:31:09;;;;;;;14.30;8.20;;;;;;;7.47;93.05;98564.66;186443;1232;59805;-83
2023/02/24 16:35:12;;;;;;;12.40;9.50;;;;;;;7.44;93.01;98556.84;186512;1234;43955;-83
2023/02/24 16:39:14;;;;;;;14.00;8.70;;;;;;;7.42;93.07;98551.55;186377;1233;44164;-83
2023/02/24 16:43:15;;;;;;;11.30;6.80;;;;;;;7.44;93.35;98549.95;186259;1232;43804;-83
2023/02/24 16:47:23;;;;;;;7.70;6.30;;;;;;;7.44;93.15;98542.79;186269;1234;43730;-83
2023/02/24 16:51:25;;;;;;;9.40;6.50;;;;;;;7.39;93.49;98538.95;186478;1232;57824;-83
2023/02/24 16:55:27;;;;;;;10.00;7.60;;;;;;;7.35;93.57;98538.03;186308;1233;43834;-83
2023/02/24 16:59:29;;;;;;;11.20;7.70;;;;;;;7.25;94.30;98537.96;186191;1233;43826;-83
2023/02/24 17:03:41;;;;;;;15.10;9.10;;;;;;;7.20;94.75;98535.52;186331;1234;44092;-83
2023/02/24 17:07:43;;;;;;;13.80;8.20;;;;;;;7.18;95.23;98529.71;186207;1233;43811;-83
2023/02/24 17:11:44;;;;;;;12.10;8.10;;;;;;;7.21;95.56;98527.27;186364;1233;59230;-83
2023/02/24 17:15:48;;;;;;;12.10;8.10;;;;;;;7.21;95.74;98524.10;186402;1232;43884;-82
2023/02/24 17:19:50;;;;;;;16.90;8.90;;;;;;;7.19;95.60;98523.14;186245;1233;44040;-85
2023/02/24 17:23:52;;;;;;;10.80;8.10;;;;;;;7.15;95.95;98525.05;186278;1234;43821;-85
2023/02/24 17:27:55;;;;;;;12.80;9.20;;;;;;;7.15;95.52;98520.99;186452;1234;44226;-85
2023/02/24 17:31:56;;;;;;;21.80;10.90;;;;;;;7.13;95.19;98517.85;186142;1232;58837;-85
2023/02/24 17:35:58;;;;;;;14.00;8.70;;;;;;;7.17;95.35;98511.31;186441;1234;43828;-86
2023/02/24 17:40:00;;;;;;;13.00;8.50;;;;;;;7.15;95.46;98511.27;186516;1234;43979;-86
2023/02/24 17:44:02;;;;;;;10.50;8.40;;;;;;;7.11;95.66;98508.54;186509;1234;44012;-85
2023/02/24 17:48:04;;;;;;;19.40;10.90;;;;;;;7.06;96.16;98505.86;186687;1234;43911;-85
2023/02/24 17:52:05;;;;;;;17.70;11.00;;;;;;;7.04;96.63;98503.19;186574;1236;59708;-85
2023/02/24 17:56:07;;;;;;;19.70;11.80;;;;;;;7.09;96.44;98498.91;186452;1233;43731;-86
2023/02/24 18:00:11;;;;;;;12.60;8.60;;;;;;;7.11;96.53;98493.70;186453;1234;43968;-85
2023/02/24 18:04:14;;;;;;;12.00;8.10;;;;;;;7.16;96.51;98488.64;186481;1233;43850;-92
2023/02/24 18:08:16;;;;;;;17.30;10.60;;;;;;;7.21;96.09;98485.88;186621;1233;43688;-91
2023/02/24 18:12:19;;;;;;;15.00;8.70;;;;;;;7.23;96.11;98482.92;186356;1234;59611;-89
2023/02/24 18:16:21;;;;;;;12.80;9.50;;;;;;;7.11;93.09;98469.73;186578;1234;44045;-88
2023/02/24 18:20:24;;;;;;;12.80;10.00;;;;;;;7.15;92.89;98461.98;186392;1232;44186;-89
2023/02/24 18:39:01;;;;;;;12.10;7.90;;;;;;;7.09;90.31;98438.38;187136;1233;81132;-74
2023/02/24 18:43:22;;;;;;;10.60;7.20;;;;;;;7.02;89.92;98439.58;186950;1233;82424;-72
2023/02/24 19:42:36;;;;;;;17.50;9.80;;;;;;;6.61;92.45;98372.34;187326;1233;43468;-74
2023/02/24 19:46:38;;;;;;;18.40;10.00;;;;;;;6.60;93.19;98365.36;187275;1235;43048;-76
2023/02/24 19:51:07;;;;;;;15.10;10.50;;;;;;;6.64;93.29;98360.91;187046;1233;57970;-73
2023/02/24 19:55:11;;;;;;;25.20;12.50;;;;;;;6.64;93.01;98356.10;187315;1233;42918;-74
2023/02/24 19:59:13;;;;;;;13.70;8.50;;;;;;;6.61;93.18;98353.95;187063;1235;42998;-74
2023/02/24 20:03:15;;;;;;;10.80;8.60;;;;;;;6.50;92.98;98345.37;187186;1234;43816;-74
2023/02/24 20:07:17;;;;;;;15.50;9.30;;;;;;;6.50;92.95;98342.31;186804;1235;43592;-74
2023/02/24 20:11:19;;;;;;;11.60;8.30;;;;;;;6.52;93.13;98334.63;187341;1235;59294;-73
2023/02/24 20:15:21;;;;;;;17.30;9.90;;;;;;;6.42;93.38;98329.05;187060;1234;43066;-75
2023/02/24 20:19:22;;;;;;;13.30;9.00;;;;;;;6.40;93.75;98326.71;186834;1234;43341;-76
2023/02/24 20:23:26;;;;;;;14.60;10.50;;;;;;;6.40;94.65;98325.66;187111;1235;43340;-74
2023/02/24 20:27:28;;;;;;;16.00;9.90;;;;;;;6.39;95.12;98330.86;187321;1235;42936;-77
2023/02/24 20:31:29;;;;;;;13.60;7.40;;;;;;;6.41;95.42;98327.67;187074;1233;59056;-77
2023/02/24 20:35:38;;;;;;;23.30;9.40;;;;;;;6.37;95.29;98322.58;187053;1235;43089;-75
2023/02/24 20:39:40;;;;;;;13.50;7.60;;;;;;;6.35;94.98;98316.61;186869;1235;42936;-75
2023/02/24 20:43:42;;;;;;;9.30;7.10;;;;;;;6.34;94.26;98311.30;187051;1236;43203;-75